Martha's Vineyard, MA

2:47 AM EDT on July 31, 2015 (GMT -0400)
Martha's Vineyard | | Change Station
CLOSE
Current Station
Airport
Location: Martha's Vineyard,
Elevation: 69 ft
Nearby Weather Stations

Elev 69 ft 41.39 °N, 70.61 °W | Updated 4 minutes ago

Light Rain
Light Rain
74 °F
Feels Like 74 °F
N
9
Wind Variable Wind from West

Today
High -- | Low -- °F
--% Chance of Precip.
Yesterday
High -- | Low -- °F
Precip. -- in
5:36 AM 8:00 PM
Full, 100% visible
Pressure 29.80 in
Visibility 9.0 miles
Clouds Scattered Clouds 1200 ft
Mostly Cloudy 7000 ft
Overcast 11000 ft
Dew Point 71 °F
Humidity 91%
Rainfall 0.00 in
Snow Depth Not available.
UV 0 out of 12
Pollen 6.00 out of 12
Air Quality Not available.
Flu Activity Not available.
SPECI KMVY 310643Z AUTO 28008KT 9SM -RA SCT012 BKN070 OVC110 23/22 A2980 RMK AO2 RAB42 P0000 T02330217 $

More Conditions Fewer Conditions

Pressure 29.80 in
Visibility 9.0 miles
Clouds Scattered Clouds 1200 ft
Mostly Cloudy 7000 ft
Overcast 11000 ft
Dew Point 71 °F
Humidity 91%
Rainfall 0.00 in
Snow Depth Not available.
UV 0 out of 12
Pollen 6.00 out of 12
Air Quality Not available.
Flu Activity Not available.
SPECI KMVY 310643Z AUTO 28008KT 9SM -RA SCT012 BKN070 OVC110 23/22 A2980 RMK AO2 RAB42 P0000 T02330217 $

More Conditions Fewer Conditions

10-Day Weather Forecast

×

Almanac

Astronomy

Jul. 31, 2015 Rise Set
Actual Time
Civil Twilight
Nautical Twilight
Astronomical Twilight
Moon
Length of Visible Light
Length of Day
Tomorrow will be .
, % of the Moon is Illuminated

Today's Extremes

State Highs State Lows

Community

WunderPhotos

Upload Photos

1,842,634 photos uploaded!

WunderBlogs® & News

Nearby

Air Quality

  Air Quality AQ Index Pollutant
Not available.

Snow Depth

Station Depth Elevation

Earthquake Activity

City Distance Mag. Time & Date
Minimum magnitude displayed is 2.5.

Coastal Water Temperatures

Place Temperature

Stations

Nearby Weather Stations

Station Location Temp. Windchill Dew Point Humidity Wind Precip. Elev Updated Type